Terminal Aerodrome Forecast
Issued by NWS Portland, OR

Home | Current Version | Previous Version | Text Only | Print | Product List | Glossary On
Versions: 1 2 3 4 5 6 7 8 9 10 11 12 13 14 15 16 17 18 19 20 21 22 23 24 25 26
000
FTUS46 KPQR 151731
TAFPDX
TAF
KPDX 151731Z 1518/1618 10004KT P6SM VCSH OVC050
     FM151900 16005KT P6SM -RA BKN025 OVC050
     FM160000 23007KT P6SM VCSH SCT025 BKN035 OVC050
     FM160300 28007KT P6SM VCSH SCT025 BKN035 OVC050=

USA.gov is the U.S. government's official web portal to all federal, state and local government web resources and services.